HomeShort term forecast

Short term forecast

Graphical weather forecast for the next 48 hours for Montreal:
Short term forecast
This weather forecast is automatically refreshed every 3 hours.

Hourly Experimental Forecast for the next 48 hours

Overall summary: Light rain (with a chance of 1–2 cm. of snow) until tomorrow morning.

 Date & Hour   Temp   Feel   Baro   Hum   Speed & Bearing   Wind Gust   Precip.%   Precip.   Visibility   Cloud cover   Conditions 
 09/04/2020 - 16:00  4.1°C  0.6°C  985.3 hPa  94%  16.0 km/h   25.0 km/h  98%  0.57 mm/h  8.8km  100%  Light Rain 
 09/04/2020 - 17:00  3.7°C  -0.1°C  985.2 hPa  92%  16.1 km/h   25.9 km/h  71%  1.21 mm/h  7.6km  100%  Light Rain 
 09/04/2020 - 18:00  3.9°C  -0.1°C  984.9 hPa  89%  17.7 km/h   33.0 km/h  69%  0.76 mm/h  11.8km  87%  Light Rain 
 09/04/2020 - 19:00  3.9°C  -0.4°C  984.6 hPa  89%  20.9 km/h   45.2 km/h  61%  0.33 mm/h  16.1km  83%  Possible Drizzle 
 09/04/2020 - 20:00  4.0°C  -0.6°C  984.4 hPa  87%  23.2 km/h   53.4 km/h  52%  0.23 mm/h  16.1km  80%  Possible Drizzle 
 09/04/2020 - 21:00  3.9°C  -0.8°C  984.0 hPa  86%  23.9 km/h   52.0 km/h  52%  0.20 mm/h  16.1km  77%  Possible Drizzle 
 09/04/2020 - 22:00  3.7°C  -0.9°C  983.8 hPa  86%  23.5 km/h   47.0 km/h  27%  0.06 mm/h  16.1km  74%  Possible Drizzle 
 09/04/2020 - 23:00  3.4°C  -1.4°C  983.4 hPa  86%  24.0 km/h   47.3 km/h  22%  0.06 mm/h  16.1km  75%  Mostly Cloudy 
 10/04/2020 - 00:00  3.1°C  -1.9°C  982.8 hPa  87%  24.5 km/h   48.7 km/h  30%  0.10 mm/h  16.1km  72%  Possible Drizzle 
 10/04/2020 - 01:00  2.6°C  -2.5°C  982.1 hPa  89%  24.9 km/h   48.6 km/h  37%  0.18 mm/h  16.1km  76%  Possible Drizzle 
 10/04/2020 - 02:00  2.2°C  -3.0°C  981.6 hPa  90%  24.8 km/h   48.8 km/h  43%  0.28 mm/h  15.2km  79%  Possible Drizzle 
 10/04/2020 - 03:00  1.9°C  -3.3°C  981.3 hPa  92%  23.7 km/h   47.0 km/h  55%  0.58 mm/h  9.6km  86%  Possible Light Rain 
 10/04/2020 - 04:00  1.7°C  -3.3°C  981.0 hPa  93%  21.7 km/h   41.3 km/h  58%  0.66 mm/h  5.2km  93%  Possible Light Rain 
 10/04/2020 - 05:00  1.6°C  -3.2°C  981.7 hPa  94%  19.6 km/h   33.2 km/h  57%  0.65 mm/h  0.2km  100%  Possible Light Rain 
 10/04/2020 - 06:00  1.5°C  -2.9°C  982.2 hPa  95%  17.4 km/h   33.7 km/h  55%  0.59 mm/h  0.0km  100%  Possible Light Rain 
 10/04/2020 - 07:00  1.6°C  -2.5°C  983.0 hPa  96%  15.3 km/h   36.0 km/h  54%  0.48 mm/h  0.0km  100%  Possible Light Rain 
 10/04/2020 - 08:00  1.6°C  -2.3°C  983.9 hPa  97%  14.7 km/h   37.1 km/h  50%  0.38 mm/h  0.0km  100%  Possible Light Snow 
 10/04/2020 - 09:00  2.1°C  -2.2°C  984.9 hPa  96%  17.2 km/h   36.5 km/h  43%  0.28 mm/h  5.2km  100%  Possible Flurries 
 10/04/2020 - 10:00  2.8°C  -1.9°C  986.0 hPa  92%  21.6 km/h   35.7 km/h  34%  0.23 mm/h  12.5km  100%  Possible Drizzle 
 10/04/2020 - 11:00  3.4°C  -1.6°C  987.0 hPa  85%  25.1 km/h   35.5 km/h  32%  0.22 mm/h  16.1km  100%  Possible Flurries 
 10/04/2020 - 12:00  4.0°C  -0.8°C  988.0 hPa  79%  25.7 km/h   35.9 km/h  28%  0.18 mm/h  16.1km  100%  Possible Drizzle 
 10/04/2020 - 13:00  4.7°C  0.1°C  989.0 hPa  75%  25.1 km/h   36.6 km/h  25%  0.12 mm/h  16.1km  100%  Overcast 
 10/04/2020 - 14:00  5.6°C  1.3°C  990.0 hPa  72%  24.5 km/h   37.2 km/h  17%  0.07 mm/h  16.1km  100%  Overcast 
 10/04/2020 - 15:00  6.3°C  2.2°C  991.0 hPa  67%  24.6 km/h   37.2 km/h  11%  0.04 mm/h  16.1km  100%  Overcast 
 10/04/2020 - 16:00  6.8°C  2.9°C  992.0 hPa  62%  24.7 km/h   36.8 km/h  7%  0.02 mm/h  16.1km  99%  Overcast 
 10/04/2020 - 17:00  6.9°C  3.0°C  993.0 hPa  59%  24.3 km/h   36.9 km/h  5%  0.01 mm/h  16.1km  99%  Overcast 
 10/04/2020 - 18:00  6.4°C  2.5°C  994.4 hPa  59%  22.8 km/h   37.3 km/h  4%  0.01 mm/h  16.1km  98%  Overcast 
 10/04/2020 - 19:00  5.4°C  1.6°C  995.7 hPa  63%  20.6 km/h   38.0 km/h  4%  0.01 mm/h  16.1km  96%  Overcast 
 10/04/2020 - 20:00  4.6°C  0.7°C  996.9 hPa  66%  19.3 km/h   39.0 km/h  2%  0.01 mm/h  16.1km  92%  Overcast 
 10/04/2020 - 21:00  3.8°C  -0.4°C  998.0 hPa  69%  19.8 km/h   40.4 km/h  0%  --  16.1km  77%  Mostly Cloudy 
 10/04/2020 - 22:00  3.1°C  -1.5°C  998.7 hPa  72%  21.2 km/h   42.3 km/h  0%  --  16.1km  56%  Partly Cloudy 
 10/04/2020 - 23:00  2.4°C  -2.5°C  999.4 hPa  75%  22.1 km/h   43.7 km/h  0%  --  16.1km  39%  Partly Cloudy 
 11/04/2020 - 00:00  1.8°C  -3.3°C  999.9 hPa  77%  22.0 km/h   44.2 km/h  0%  --  16.1km  29%  Clear 
 11/04/2020 - 01:00  1.2°C  -3.9°C  1000.3 hPa  77%  21.4 km/h   44.0 km/h  0%  --  16.1km  23%  Clear 
 11/04/2020 - 02:00  0.7°C  -4.4°C  1000.7 hPa  76%  20.9 km/h   43.7 km/h  0%  --  16.1km  21%  Clear 
 11/04/2020 - 03:00  0.3°C  -4.9°C  1001.4 hPa  76%  20.8 km/h   43.3 km/h  0%  --  16.1km  24%  Clear 
 11/04/2020 - 04:00  0.0°C  -5.3°C  1002.1 hPa  77%  20.7 km/h   42.7 km/h  0%  --  16.1km  31%  Clear 
 11/04/2020 - 05:00  -0.2°C  -5.6°C  1002.9 hPa  77%  20.9 km/h   42.0 km/h  0%  --  16.1km  36%  Partly Cloudy 
 11/04/2020 - 06:00  -0.2°C  -5.7°C  1003.8 hPa  77%  21.5 km/h   41.6 km/h  0%  --  16.1km  37%  Partly Cloudy 
 11/04/2020 - 07:00  -0.1°C  -5.7°C  1004.7 hPa  76%  22.3 km/h   41.1 km/h  0%  --  16.1km  37%  Partly Cloudy 
 11/04/2020 - 08:00  0.1°C  -5.6°C  1005.5 hPa  76%  23.2 km/h   40.6 km/h  0%  --  16.1km  36%  Partly Cloudy 
 11/04/2020 - 09:00  0.7°C  -4.9°C  1006.2 hPa  74%  24.0 km/h   39.8 km/h  0%  --  16.1km  36%  Partly Cloudy 
 11/04/2020 - 10:00  1.6°C  -3.9°C  1006.8 hPa  71%  24.9 km/h   38.8 km/h  0%  --  16.1km  36%  Partly Cloudy 
 11/04/2020 - 11:00  2.3°C  -3.0°C  1007.4 hPa  67%  25.7 km/h   38.1 km/h  0%  --  16.1km  37%  Partly Cloudy 
 11/04/2020 - 12:00  3.0°C  -2.1°C  1007.7 hPa  64%  26.1 km/h   37.7 km/h  0%  --  16.1km  45%  Partly Cloudy 
 11/04/2020 - 13:00  3.9°C  -1.1°C  1008.0 hPa  61%  26.3 km/h   37.5 km/h  0%  --  16.1km  55%  Partly Cloudy 
 11/04/2020 - 14:00  4.7°C  0.0°C  1008.3 hPa  59%  26.3 km/h   37.5 km/h  0%  --  16.1km  62%  Mostly Cloudy 
 11/04/2020 - 15:00  5.8°C  1.4°C  1008.5 hPa  55%  26.3 km/h   37.9 km/h  0%  --  16.1km  64%  Mostly Cloudy 
Test

 

Past weather and reports

Past weatherFind in this section the past weather conditions, weather archive, graphics, reports and statistics.

Current conditions

Current weather condition for MontrealAll you need to know about the current weather conditions for Montreal. Weather data is updated every 10 minutes.

Weather forecast

Current Montreal weatherSince 2004, celinium.com website has provided accurate weather forecast for Montreal's island.